UAL1151 KFLL-KSFO
Flight info
| Callsign | UAL1151 |
|---|---|
| Flight time | N/A |
| Altitude | 30000 |
| Route | HROCK2 SMELZ Q116 JAWJA MGMRY JILLS Q128 ECIGE/N0461F320 Q128 FLOOD HBU ELLMU MLF KITTN Q164 KATTS Q136 RUMPS OAL INYOE DYAMD5 |
| Aircraft | B38M/M-SDE1FGHILORVWXY/HB1 |
Departure
| Time | 2026-05-05 13:21 |
|---|---|
| Airport | Fort Lauderdale Hollywood International Airport (KFLL) |
Arrival
| Time | N/A |
|---|---|
| Airport | San Francisco International Airport (KSFO) |
| Time | Latitude | Longitude | Altitude | Speed | Heading |
|---|---|---|---|---|---|
| 2026-05-05 12:30 | 26.07384 | -80.13644 | 18 ft | 0 kts | 104° |
| 2026-05-05 13:09 | 26.07385 | -80.13648 | 18 ft | 3 kts | 104° |
| 2026-05-05 13:10 | 26.07392 | -80.13677 | 20 ft | 4 kts | 104° |
| 2026-05-05 13:10 | 26.07400 | -80.13703 | 18 ft | 4 kts | 139° |
| 2026-05-05 13:10 | 26.07415 | -80.13707 | 19 ft | 4 kts | 173° |
| 2026-05-05 13:10 | 26.07435 | -80.13717 | 21 ft | 4 kts | 110° |
| 2026-05-05 13:11 | 26.07432 | -80.13733 | 22 ft | 4 kts | 22° |
| 2026-05-05 13:11 | 26.07413 | -80.13735 | 20 ft | 4 kts | 0° |
| 2026-05-05 13:11 | 26.07405 | -80.13735 | 18 ft | 2 kts | 0° |
| 2026-05-05 13:15 | 26.07407 | -80.13735 | 20 ft | 1 kts | 0° |
| 2026-05-05 13:15 | 26.07427 | -80.13735 | 22 ft | 6 kts | 0° |
| 2026-05-05 13:15 | 26.07487 | -80.13726 | 18 ft | 10 kts | 357° |
| 2026-05-05 13:15 | 26.07519 | -80.13784 | 18 ft | 10 kts | 270° |
| 2026-05-05 13:16 | 26.07518 | -80.13828 | 18 ft | 10 kts | 270° |
| 2026-05-05 13:16 | 26.07538 | -80.13908 | 18 ft | 11 kts | 304° |
| 2026-05-05 13:16 | 26.07556 | -80.13989 | 19 ft | 11 kts | 270° |
| 2026-05-05 13:16 | 26.07556 | -80.14092 | 19 ft | 16 kts | 271° |
| 2026-05-05 13:17 | 26.07557 | -80.14249 | 19 ft | 24 kts | 270° |
| 2026-05-05 13:17 | 26.07559 | -80.14445 | 19 ft | 26 kts | 270° |
| 2026-05-05 13:17 | 26.07560 | -80.14647 | 19 ft | 26 kts | 270° |
| 2026-05-05 13:17 | 26.07561 | -80.14854 | 19 ft | 27 kts | 270° |
| 2026-05-05 13:18 | 26.07562 | -80.15066 | 18 ft | 28 kts | 270° |
| 2026-05-05 13:18 | 26.07563 | -80.15283 | 18 ft | 28 kts | 270° |
| 2026-05-05 13:18 | 26.07565 | -80.15503 | 18 ft | 29 kts | 270° |
| 2026-05-05 13:18 | 26.07566 | -80.15726 | 18 ft | 29 kts | 270° |
| 2026-05-05 13:19 | 26.07567 | -80.15951 | 19 ft | 29 kts | 271° |
| 2026-05-05 13:19 | 26.07568 | -80.16167 | 19 ft | 27 kts | 270° |
| 2026-05-05 13:19 | 26.07570 | -80.16372 | 19 ft | 24 kts | 270° |
| 2026-05-05 13:19 | 26.07571 | -80.16535 | 19 ft | 18 kts | 270° |
| 2026-05-05 13:20 | 26.07588 | -80.16638 | 19 ft | 10 kts | 331° |
| 2026-05-05 13:20 | 26.07647 | -80.16644 | 20 ft | 8 kts | 359° |
| 2026-05-05 13:20 | 26.07691 | -80.16631 | 20 ft | 5 kts | 69° |
| 2026-05-05 13:20 | 26.07695 | -80.16562 | 21 ft | 24 kts | 90° |
| 2026-05-05 13:21 | 26.07693 | -80.16117 | 21 ft | 91 kts | 90° |
| 2026-05-05 13:21 | 26.07687 | -80.15191 | 18 ft | 146 kts | 90° |
| 2026-05-05 13:21 | 26.07680 | -80.13898 | 119 ft | 181 kts | 90° |
| 2026-05-05 13:21 | 26.07700 | -80.12493 | 724 ft | 184 kts | 86° |
| 2026-05-05 13:22 | 26.07751 | -80.11061 | 1466 ft | 183 kts | 86° |
| 2026-05-05 13:22 | 26.07907 | -80.09653 | 2042 ft | 187 kts | 70° |
| 2026-05-05 13:22 | 26.08396 | -80.08301 | 2515 ft | 193 kts | 64° |
| 2026-05-05 13:22 | 26.09205 | -80.07123 | 2951 ft | 195 kts | 31° |
| 2026-05-05 13:23 | 26.10497 | -80.06526 | 3237 ft | 210 kts | 17° |
| 2026-05-05 13:23 | 26.11917 | -80.05989 | 3603 ft | 225 kts | 19° |
| 2026-05-05 13:23 | 26.13440 | -80.05387 | 4034 ft | 237 kts | 19° |
| 2026-05-05 13:23 | 26.15054 | -80.04827 | 4502 ft | 249 kts | 8° |
| 2026-05-05 13:24 | 26.16804 | -80.04962 | 4944 ft | 257 kts | 343° |
| 2026-05-05 13:24 | 26.18499 | -80.05593 | 5658 ft | 258 kts | 338° |
| 2026-05-05 13:24 | 26.20215 | -80.06324 | 6100 ft | 272 kts | 337° |
| 2026-05-05 13:24 | 26.21845 | -80.07376 | 6666 ft | 270 kts | 313° |
| 2026-05-05 13:25 | 26.22900 | -80.09091 | 7251 ft | 273 kts | 292° |
| 2026-05-05 13:25 | 26.23655 | -80.11070 | 7811 ft | 278 kts | 291° |
| 2026-05-05 13:25 | 26.24389 | -80.13034 | 8504 ft | 279 kts | 291° |
| 2026-05-05 13:25 | 26.25124 | -80.15040 | 9205 ft | 280 kts | 290° |
| 2026-05-05 13:26 | 26.25750 | -80.17127 | 9888 ft | 281 kts | 285° |
| 2026-05-05 13:26 | 26.26292 | -80.19218 | 10330 ft | 291 kts | 285° |
| 2026-05-05 13:26 | 26.26881 | -80.21450 | 10505 ft | 310 kts | 285° |
| 2026-05-05 13:26 | 26.27509 | -80.23815 | 10709 ft | 326 kts | 285° |
| 2026-05-05 13:27 | 26.28165 | -80.26277 | 11098 ft | 334 kts | 285° |
| 2026-05-05 13:27 | 26.28823 | -80.28744 | 11764 ft | 334 kts | 285° |
| 2026-05-05 13:27 | 26.29488 | -80.31235 | 12388 ft | 336 kts | 286° |
| 2026-05-05 13:27 | 26.30152 | -80.33727 | 13038 ft | 337 kts | 285° |
| 2026-05-05 13:28 | 26.30822 | -80.36243 | 13684 ft | 339 kts | 285° |
| 2026-05-05 13:28 | 26.31497 | -80.38776 | 14297 ft | 340 kts | 286° |
| 2026-05-05 13:28 | 26.32162 | -80.41275 | 14875 ft | 341 kts | 286° |
| 2026-05-05 13:28 | 26.32839 | -80.43822 | 15471 ft | 343 kts | 286° |
| 2026-05-05 13:29 | 26.33517 | -80.46374 | 16044 ft | 345 kts | 286° |
| 2026-05-05 13:29 | 26.34199 | -80.48946 | 16599 ft | 347 kts | 286° |
| 2026-05-05 13:29 | 26.34885 | -80.51532 | 17148 ft | 348 kts | 286° |
| 2026-05-05 13:29 | 26.35573 | -80.54127 | 17680 ft | 350 kts | 286° |
| 2026-05-05 13:30 | 26.36263 | -80.56734 | 18215 ft | 352 kts | 287° |
| 2026-05-05 13:30 | 26.36957 | -80.59358 | 18680 ft | 354 kts | 287° |
| 2026-05-05 13:30 | 26.37655 | -80.61997 | 19125 ft | 355 kts | 287° |
| 2026-05-05 13:30 | 26.38354 | -80.64647 | 19561 ft | 357 kts | 287° |
| 2026-05-05 13:31 | 26.39056 | -80.67305 | 20011 ft | 358 kts | 287° |
| 2026-05-05 13:31 | 26.39767 | -80.69975 | 20432 ft | 360 kts | 289° |
| 2026-05-05 13:31 | 26.40911 | -80.72441 | 20853 ft | 361 kts | 306° |
| 2026-05-05 13:31 | 26.42534 | -80.74548 | 21254 ft | 364 kts | 309° |
| 2026-05-05 13:32 | 26.44220 | -80.76664 | 21651 ft | 366 kts | 310° |
| 2026-05-05 13:32 | 26.45926 | -80.78772 | 22075 ft | 367 kts | 310° |
| 2026-05-05 13:32 | 26.47644 | -80.80872 | 22476 ft | 369 kts | 310° |
| 2026-05-05 13:32 | 26.49382 | -80.82985 | 22878 ft | 370 kts | 311° |
| 2026-05-05 13:33 | 26.51131 | -80.85105 | 23277 ft | 372 kts | 311° |
| 2026-05-05 13:33 | 26.52889 | -80.87234 | 23647 ft | 373 kts | 311° |
| 2026-05-05 13:33 | 26.54655 | -80.89374 | 23960 ft | 375 kts | 311° |
| 2026-05-05 13:33 | 26.56427 | -80.91521 | 24258 ft | 377 kts | 311° |
| 2026-05-05 13:34 | 26.58206 | -80.93677 | 24587 ft | 378 kts | 311° |
| 2026-05-05 13:34 | 26.59994 | -80.95846 | 24908 ft | 379 kts | 311° |
| 2026-05-05 13:34 | 26.61786 | -80.98020 | 25222 ft | 381 kts | 311° |
| 2026-05-05 13:34 | 26.62975 | -80.99464 | 25416 ft | 382 kts | 311° |
| 2026-05-05 13:35 | 26.64777 | -81.01652 | 25711 ft | 384 kts | 311° |
| 2026-05-05 13:35 | 26.66591 | -81.03855 | 26010 ft | 386 kts | 311° |
| 2026-05-05 13:35 | 26.68413 | -81.06070 | 26302 ft | 388 kts | 311° |
| 2026-05-05 13:35 | 26.70239 | -81.08291 | 26587 ft | 389 kts | 311° |
| 2026-05-05 13:36 | 26.72079 | -81.10531 | 26875 ft | 391 kts | 311° |
| 2026-05-05 13:36 | 26.73928 | -81.12782 | 27156 ft | 393 kts | 311° |
| 2026-05-05 13:36 | 26.75783 | -81.15041 | 27430 ft | 395 kts | 311° |
| 2026-05-05 13:36 | 26.77617 | -81.17277 | 27695 ft | 397 kts | 311° |
| 2026-05-05 13:37 | 26.79484 | -81.19553 | 27958 ft | 398 kts | 311° |
| 2026-05-05 13:37 | 26.81357 | -81.21839 | 28220 ft | 400 kts | 311° |
| 2026-05-05 13:37 | 26.83241 | -81.24139 | 28483 ft | 402 kts | 311° |
| 2026-05-05 13:37 | 26.85134 | -81.26450 | 28734 ft | 404 kts | 311° |
| 2026-05-05 13:38 | 26.87037 | -81.28776 | 28976 ft | 405 kts | 311° |
| 2026-05-05 13:38 | 26.88943 | -81.31105 | 29274 ft | 406 kts | 312° |
| 2026-05-05 13:38 | 26.90850 | -81.33439 | 29563 ft | 407 kts | 312° |
| 2026-05-05 13:38 | 26.92773 | -81.35792 | 29784 ft | 409 kts | 312° |
| 2026-05-05 13:39 | 26.94697 | -81.38148 | 30022 ft | 411 kts | 312° |
| 2026-05-05 13:39 | 26.96632 | -81.40519 | 30244 ft | 412 kts | 312° |
| 2026-05-05 13:39 | 26.98555 | -81.42877 | 30541 ft | 411 kts | 312° |
| 2026-05-05 13:39 | 27.00480 | -81.45237 | 30896 ft | 408 kts | 312° |
| 2026-05-05 13:40 | 27.02388 | -81.47579 | 31262 ft | 405 kts | 312° |
| 2026-05-05 13:40 | 27.04288 | -81.49896 | 31642 ft | 402 kts | 315° |
| 2026-05-05 13:40 | 27.06491 | -81.51802 | 32038 ft | 400 kts | 326° |
| 2026-05-05 13:40 | 27.08818 | -81.53498 | 32419 ft | 396 kts | 324° |
| 2026-05-05 13:41 | 27.11087 | -81.55170 | 32789 ft | 393 kts | 325° |
| 2026-05-05 13:41 | 27.13375 | -81.56838 | 33176 ft | 390 kts | 325° |
| 2026-05-05 13:41 | 27.15650 | -81.58486 | 33575 ft | 387 kts | 325° |
| 2026-05-05 13:41 | 27.17896 | -81.60110 | 33949 ft | 383 kts | 325° |
| 2026-05-05 13:42 | 27.20129 | -81.61723 | 34055 ft | 379 kts | 325° |
| 2026-05-05 13:42 | 27.22334 | -81.63317 | 34038 ft | 375 kts | 325° |
| 2026-05-05 13:42 | 27.26713 | -81.66484 | 34023 ft | 373 kts | 325° |
| 2026-05-05 13:43 | 27.31061 | -81.69630 | 34063 ft | 373 kts | 325° |
| 2026-05-05 13:43 | 27.35421 | -81.72788 | 34071 ft | 373 kts | 325° |
| 2026-05-05 13:44 | 27.39779 | -81.75948 | 34071 ft | 373 kts | 325° |
| 2026-05-05 13:44 | 27.44143 | -81.79115 | 34071 ft | 373 kts | 325° |
| 2026-05-05 13:45 | 27.48768 | -81.81776 | 34087 ft | 376 kts | 332° |
| 2026-05-05 13:45 | 27.53569 | -81.84138 | 34078 ft | 376 kts | 333° |
| 2026-05-05 13:46 | 27.58347 | -81.86470 | 34075 ft | 376 kts | 333° |
| 2026-05-05 13:46 | 27.63148 | -81.88812 | 34078 ft | 376 kts | 333° |
| 2026-05-05 13:47 | 27.67950 | -81.91156 | 34080 ft | 376 kts | 333° |
| 2026-05-05 13:47 | 27.72750 | -81.93501 | 34083 ft | 376 kts | 333° |
| 2026-05-05 13:48 | 27.77555 | -81.95851 | 34078 ft | 376 kts | 333° |
| 2026-05-05 13:48 | 27.82366 | -81.98206 | 34080 ft | 376 kts | 333° |
| 2026-05-05 13:49 | 27.87147 | -82.00549 | 34094 ft | 373 kts | 333° |
| 2026-05-05 13:49 | 27.91878 | -82.02869 | 34116 ft | 374 kts | 333° |
| 2026-05-05 13:50 | 27.94265 | -82.04041 | 34346 ft | 373 kts | 333° |
| 2026-05-05 13:50 | 27.96647 | -82.05211 | 34572 ft | 372 kts | 333° |
| 2026-05-05 13:50 | 27.99022 | -82.06378 | 34788 ft | 371 kts | 333° |
| 2026-05-05 13:50 | 28.01389 | -82.07542 | 35005 ft | 371 kts | 333° |
| 2026-05-05 13:51 | 28.03751 | -82.08703 | 35229 ft | 370 kts | 332° |
| 2026-05-05 13:51 | 28.06114 | -82.09865 | 35437 ft | 369 kts | 332° |
| 2026-05-05 13:51 | 28.08412 | -82.11095 | 35647 ft | 364 kts | 324° |
| 2026-05-05 13:51 | 28.10479 | -82.12732 | 35887 ft | 361 kts | 323° |
| 2026-05-05 13:52 | 28.12520 | -82.14327 | 36038 ft | 360 kts | 323° |
| 2026-05-05 13:52 | 28.14579 | -82.15953 | 36141 ft | 360 kts | 323° |
| 2026-05-05 13:52 | 28.18657 | -82.19197 | 36099 ft | 356 kts | 323° |
| 2026-05-05 13:53 | 28.22711 | -82.22433 | 36099 ft | 357 kts | 323° |
| 2026-05-05 13:53 | 28.26766 | -82.25674 | 36103 ft | 356 kts | 323° |
| 2026-05-05 13:54 | 28.30813 | -82.28911 | 36102 ft | 356 kts | 323° |
| 2026-05-05 13:54 | 28.34864 | -82.32155 | 36082 ft | 356 kts | 323° |
| 2026-05-05 13:55 | 28.38890 | -82.35382 | 36084 ft | 356 kts | 323° |
| 2026-05-05 13:55 | 28.42948 | -82.38637 | 36080 ft | 356 kts | 323° |
| 2026-05-05 13:56 | 28.46998 | -82.41891 | 36106 ft | 356 kts | 323° |
| 2026-05-05 13:56 | 28.51025 | -82.45127 | 36084 ft | 354 kts | 323° |
| 2026-05-05 13:57 | 28.55059 | -82.48373 | 36084 ft | 355 kts | 323° |
| 2026-05-05 13:57 | 28.59094 | -82.51622 | 36096 ft | 355 kts | 323° |
| 2026-05-05 13:58 | 28.63104 | -82.54855 | 36094 ft | 355 kts | 323° |
| 2026-05-05 13:58 | 28.67137 | -82.58109 | 36090 ft | 355 kts | 323° |
| 2026-05-05 13:59 | 28.73165 | -82.62979 | 36093 ft | 355 kts | 323° |
| 2026-05-05 14:00 | 28.78531 | -82.67320 | 36109 ft | 354 kts | 322° |
| 2026-05-05 14:00 | 28.83191 | -82.71094 | 36094 ft | 354 kts | 322° |
| 2026-05-05 14:01 | 28.87207 | -82.74350 | 36100 ft | 354 kts | 322° |
| 2026-05-05 14:01 | 28.91214 | -82.77602 | 36098 ft | 354 kts | 322° |
| 2026-05-05 14:02 | 28.95211 | -82.80849 | 36093 ft | 356 kts | 322° |
| 2026-05-05 14:02 | 28.99260 | -82.84141 | 36093 ft | 356 kts | 322° |
| 2026-05-05 14:03 | 29.03302 | -82.87430 | 36094 ft | 356 kts | 322° |
| 2026-05-05 14:03 | 29.07324 | -82.90708 | 36122 ft | 356 kts | 322° |
| 2026-05-05 14:04 | 29.11343 | -82.93986 | 36093 ft | 354 kts | 322° |
| 2026-05-05 14:04 | 29.15361 | -82.97266 | 36095 ft | 354 kts | 322° |
| 2026-05-05 14:05 | 29.19350 | -83.00526 | 36091 ft | 355 kts | 322° |
| 2026-05-05 14:05 | 29.23368 | -83.03813 | 36092 ft | 355 kts | 322° |
| 2026-05-05 14:06 | 29.27384 | -83.07101 | 36092 ft | 355 kts | 322° |
| 2026-05-05 14:06 | 29.31395 | -83.10389 | 36092 ft | 355 kts | 322° |
| 2026-05-05 14:07 | 29.35411 | -83.13683 | 36090 ft | 355 kts | 322° |
| 2026-05-05 14:07 | 29.39425 | -83.16980 | 36076 ft | 354 kts | 322° |
| 2026-05-05 14:08 | 29.43442 | -83.20282 | 36095 ft | 356 kts | 322° |
| 2026-05-05 14:08 | 29.47441 | -83.23572 | 36091 ft | 356 kts | 322° |
| 2026-05-05 14:09 | 29.51459 | -83.26882 | 36091 ft | 356 kts | 322° |
| 2026-05-05 14:09 | 29.55494 | -83.30209 | 36092 ft | 356 kts | 322° |
| 2026-05-05 14:10 | 29.59516 | -83.33528 | 36091 ft | 356 kts | 322° |
| 2026-05-05 14:10 | 29.63541 | -83.36854 | 36092 ft | 356 kts | 322° |
| 2026-05-05 14:11 | 29.67569 | -83.40185 | 36127 ft | 356 kts | 322° |
| 2026-05-05 14:11 | 29.71536 | -83.43469 | 36090 ft | 353 kts | 322° |
| 2026-05-05 14:12 | 29.75528 | -83.46777 | 36092 ft | 354 kts | 322° |
| 2026-05-05 14:12 | 29.79526 | -83.50093 | 36095 ft | 354 kts | 322° |
| 2026-05-05 14:13 | 29.83519 | -83.53408 | 36094 ft | 354 kts | 322° |
| 2026-05-05 14:13 | 29.87524 | -83.56735 | 36100 ft | 356 kts | 321° |
| 2026-05-05 14:14 | 29.91534 | -83.60070 | 36096 ft | 356 kts | 321° |
| 2026-05-05 14:14 | 29.95519 | -83.63386 | 36097 ft | 356 kts | 321° |
| 2026-05-05 14:15 | 29.99522 | -83.66722 | 36100 ft | 354 kts | 321° |
| 2026-05-05 14:15 | 30.03516 | -83.70052 | 36102 ft | 353 kts | 321° |
| 2026-05-05 14:16 | 30.07483 | -83.73364 | 36099 ft | 354 kts | 321° |
| 2026-05-05 14:16 | 30.11461 | -83.76687 | 36098 ft | 354 kts | 321° |
| 2026-05-05 14:17 | 30.15445 | -83.80020 | 36094 ft | 354 kts | 321° |
| 2026-05-05 14:17 | 30.19117 | -83.83743 | 36112 ft | 351 kts | 314° |
| 2026-05-05 14:18 | 30.22558 | -83.87777 | 36093 ft | 352 kts | 314° |
| 2026-05-05 14:18 | 30.25981 | -83.91825 | 36115 ft | 352 kts | 313° |
| 2026-05-05 14:19 | 30.29395 | -83.95873 | 36096 ft | 351 kts | 313° |
| 2026-05-05 14:19 | 30.32808 | -83.99925 | 36096 ft | 351 kts | 313° |
| 2026-05-05 14:20 | 30.36215 | -84.03974 | 36093 ft | 351 kts | 313° |
| 2026-05-05 14:20 | 30.39623 | -84.08029 | 36092 ft | 351 kts | 313° |
| 2026-05-05 14:21 | 30.43029 | -84.12086 | 36091 ft | 351 kts | 313° |
| 2026-05-05 14:21 | 30.46413 | -84.16121 | 36092 ft | 351 kts | 313° |
| 2026-05-05 14:22 | 30.49819 | -84.20186 | 36090 ft | 351 kts | 313° |
| 2026-05-05 14:22 | 30.53226 | -84.24257 | 36090 ft | 351 kts | 313° |
| 2026-05-05 14:23 | 30.56631 | -84.28330 | 36093 ft | 352 kts | 313° |
| 2026-05-05 14:23 | 30.60038 | -84.32411 | 36089 ft | 353 kts | 313° |
| 2026-05-05 14:24 | 30.63456 | -84.36508 | 36089 ft | 353 kts | 313° |
| 2026-05-05 14:24 | 30.66291 | -84.39910 | 36091 ft | 353 kts | 313° |
| 2026-05-05 14:25 | 30.70266 | -84.44684 | 36091 ft | 353 kts | 313° |
| 2026-05-05 14:25 | 30.73679 | -84.48790 | 36091 ft | 353 kts | 313° |
| 2026-05-05 14:26 | 30.76541 | -84.52234 | 36082 ft | 353 kts | 313° |
| 2026-05-05 14:26 | 30.79934 | -84.56323 | 36086 ft | 353 kts | 313° |
| 2026-05-05 14:27 | 30.83348 | -84.60441 | 36091 ft | 353 kts | 313° |
| 2026-05-05 14:27 | 30.86759 | -84.64562 | 36103 ft | 353 kts | 313° |
| 2026-05-05 14:28 | 30.90158 | -84.68671 | 36079 ft | 352 kts | 312° |
| 2026-05-05 14:28 | 30.93534 | -84.72757 | 36085 ft | 353 kts | 312° |
| 2026-05-05 14:29 | 30.96957 | -84.76903 | 36104 ft | 353 kts | 312° |
| 2026-05-05 14:29 | 31.00332 | -84.80998 | 36105 ft | 353 kts | 312° |
| 2026-05-05 14:30 | 31.03736 | -84.85131 | 36100 ft | 353 kts | 312° |
| 2026-05-05 14:30 | 31.07133 | -84.89261 | 36099 ft | 353 kts | 312° |
| 2026-05-05 14:31 | 31.10532 | -84.93398 | 36097 ft | 353 kts | 312° |
| 2026-05-05 14:31 | 31.13931 | -84.97538 | 36099 ft | 353 kts | 312° |
| 2026-05-05 14:32 | 31.17316 | -85.01668 | 36103 ft | 351 kts | 312° |
| 2026-05-05 14:32 | 31.20690 | -85.05789 | 36084 ft | 351 kts | 312° |
| 2026-05-05 14:33 | 31.24054 | -85.09900 | 36100 ft | 353 kts | 312° |
| 2026-05-05 14:33 | 31.27444 | -85.14048 | 36096 ft | 352 kts | 311° |
| 2026-05-05 14:34 | 31.30831 | -85.18198 | 36103 ft | 353 kts | 311° |
| 2026-05-05 14:34 | 31.34212 | -85.22344 | 36103 ft | 353 kts | 311° |
| 2026-05-05 14:35 | 31.37592 | -85.26494 | 36102 ft | 353 kts | 311° |
| 2026-05-05 14:35 | 31.40976 | -85.30653 | 36096 ft | 352 kts | 311° |
| 2026-05-05 14:36 | 31.44355 | -85.34812 | 36145 ft | 352 kts | 311° |
| 2026-05-05 14:36 | 31.47702 | -85.38935 | 36112 ft | 351 kts | 311° |
| 2026-05-05 14:37 | 31.51055 | -85.43071 | 36097 ft | 351 kts | 311° |
| 2026-05-05 14:37 | 31.54427 | -85.47234 | 36105 ft | 352 kts | 311° |
| 2026-05-05 14:38 | 31.57801 | -85.51404 | 36078 ft | 352 kts | 311° |
| 2026-05-05 14:38 | 31.61175 | -85.55580 | 36081 ft | 353 kts | 311° |
| 2026-05-05 14:39 | 31.64557 | -85.59770 | 36082 ft | 353 kts | 311° |
| 2026-05-05 14:39 | 31.67927 | -85.63948 | 36082 ft | 353 kts | 311° |
| 2026-05-05 14:40 | 31.71280 | -85.68112 | 36086 ft | 353 kts | 311° |
| 2026-05-05 14:40 | 31.74652 | -85.72304 | 36098 ft | 352 kts | 311° |
| 2026-05-05 14:41 | 31.78013 | -85.76487 | 36091 ft | 352 kts | 311° |
| 2026-05-05 14:41 | 31.81371 | -85.80670 | 36092 ft | 352 kts | 311° |
| 2026-05-05 14:42 | 31.84719 | -85.84846 | 36095 ft | 352 kts | 311° |
| 2026-05-05 14:42 | 31.88078 | -85.89041 | 36098 ft | 352 kts | 311° |
| 2026-05-05 14:43 | 31.91435 | -85.93237 | 36101 ft | 351 kts | 311° |
| 2026-05-05 14:43 | 31.94764 | -85.97404 | 36100 ft | 352 kts | 311° |
| 2026-05-05 14:44 | 31.98119 | -86.01607 | 36098 ft | 351 kts | 310° |
| 2026-05-05 14:44 | 32.01469 | -86.05811 | 36124 ft | 352 kts | 310° |
| 2026-05-05 14:45 | 32.04804 | -86.09997 | 36095 ft | 350 kts | 310° |
| 2026-05-05 14:45 | 32.08138 | -86.14187 | 36082 ft | 350 kts | 310° |
| 2026-05-05 14:46 | 32.11451 | -86.18357 | 36066 ft | 350 kts | 310° |
| 2026-05-05 14:46 | 32.14793 | -86.22567 | 36068 ft | 352 kts | 310° |
| 2026-05-05 14:47 | 32.18149 | -86.26798 | 36075 ft | 352 kts | 310° |
| 2026-05-05 14:47 | 32.21489 | -86.31016 | 36083 ft | 352 kts | 310° |
| 2026-05-05 14:48 | 32.24817 | -86.35251 | 36080 ft | 352 kts | 310° |
| 2026-05-05 14:48 | 32.28154 | -86.39496 | 36081 ft | 352 kts | 310° |
| 2026-05-05 14:49 | 32.31464 | -86.43711 | 36103 ft | 351 kts | 310° |
| 2026-05-05 14:49 | 32.34783 | -86.47941 | 36055 ft | 350 kts | 310° |
| 2026-05-05 14:50 | 32.38094 | -86.52167 | 36047 ft | 350 kts | 310° |
| 2026-05-05 14:50 | 32.41409 | -86.56403 | 36045 ft | 350 kts | 310° |
| 2026-05-05 14:51 | 32.44703 | -86.60617 | 36057 ft | 351 kts | 309° |
| 2026-05-05 14:51 | 32.48022 | -86.64866 | 36032 ft | 351 kts | 309° |
| 2026-05-05 14:52 | 32.51334 | -86.69113 | 36022 ft | 351 kts | 309° |
| 2026-05-05 14:52 | 32.54644 | -86.73361 | 36010 ft | 351 kts | 309° |
| 2026-05-05 14:53 | 32.57950 | -86.77610 | 36073 ft | 351 kts | 309° |
| 2026-05-05 14:53 | 32.61231 | -86.81832 | 36001 ft | 348 kts | 309° |
| 2026-05-05 14:54 | 32.64515 | -86.86061 | 36006 ft | 349 kts | 309° |
| 2026-05-05 14:54 | 32.67804 | -86.90303 | 36004 ft | 349 kts | 309° |
| 2026-05-05 14:55 | 32.71082 | -86.94535 | 36015 ft | 349 kts | 309° |
| 2026-05-05 14:55 | 32.74371 | -86.98787 | 36016 ft | 350 kts | 309° |
| 2026-05-05 14:56 | 32.77663 | -87.03046 | 36017 ft | 350 kts | 309° |
| 2026-05-05 14:56 | 32.80954 | -87.07311 | 36026 ft | 350 kts | 309° |
| 2026-05-05 14:57 | 32.84223 | -87.11551 | 36031 ft | 350 kts | 309° |
| 2026-05-05 14:57 | 32.87505 | -87.15814 | 36047 ft | 349 kts | 309° |
| 2026-05-05 14:58 | 32.90771 | -87.20060 | 36031 ft | 348 kts | 309° |
| 2026-05-05 14:58 | 32.94037 | -87.24313 | 36042 ft | 348 kts | 309° |
| 2026-05-05 14:59 | 32.97303 | -87.28569 | 36040 ft | 348 kts | 309° |
| 2026-05-05 14:59 | 33.00568 | -87.32830 | 36045 ft | 348 kts | 309° |
| 2026-05-05 15:00 | 33.03281 | -87.36374 | 36019 ft | 349 kts | 308° |
| 2026-05-05 15:00 | 33.07104 | -87.41373 | 36011 ft | 349 kts | 308° |
| 2026-05-05 15:01 | 33.10351 | -87.45625 | 36014 ft | 349 kts | 308° |
| 2026-05-05 15:01 | 33.13624 | -87.49916 | 36040 ft | 349 kts | 308° |
| 2026-05-05 15:02 | 33.16885 | -87.54196 | 35999 ft | 347 kts | 308° |
| 2026-05-05 15:02 | 33.20133 | -87.58466 | 36001 ft | 347 kts | 308° |
| 2026-05-05 15:03 | 33.23357 | -87.62706 | 36000 ft | 347 kts | 308° |
| 2026-05-05 15:03 | 33.26602 | -87.66979 | 35994 ft | 347 kts | 308° |
| 2026-05-05 15:04 | 33.29854 | -87.71267 | 35984 ft | 347 kts | 308° |
| 2026-05-05 15:04 | 33.33054 | -87.75608 | 35996 ft | 347 kts | 306° |
| 2026-05-05 15:05 | 33.37727 | -87.82237 | 35987 ft | 347 kts | 306° |
| 2026-05-05 15:06 | 33.40825 | -87.86624 | 35995 ft | 348 kts | 306° |
| 2026-05-05 15:06 | 33.43944 | -87.91045 | 35990 ft | 347 kts | 306° |
| 2026-05-05 15:07 | 33.47065 | -87.95475 | 35986 ft | 348 kts | 306° |
| 2026-05-05 15:07 | 33.50185 | -87.99909 | 35989 ft | 348 kts | 306° |
| 2026-05-05 15:08 | 33.53301 | -88.04342 | 35982 ft | 348 kts | 306° |
| 2026-05-05 15:08 | 33.56419 | -88.08782 | 35982 ft | 348 kts | 306° |
| 2026-05-05 15:09 | 33.59520 | -88.13205 | 35981 ft | 348 kts | 306° |
| 2026-05-05 15:09 | 33.62629 | -88.17646 | 35980 ft | 348 kts | 306° |
| 2026-05-05 15:10 | 33.65740 | -88.22093 | 35981 ft | 348 kts | 306° |
| 2026-05-05 15:10 | 33.68847 | -88.26542 | 35996 ft | 347 kts | 306° |
| 2026-05-05 15:11 | 33.71940 | -88.30975 | 35986 ft | 347 kts | 306° |
| 2026-05-05 15:11 | 33.75036 | -88.35416 | 35974 ft | 347 kts | 306° |
| 2026-05-05 15:12 | 33.78135 | -88.39869 | 35978 ft | 347 kts | 306° |
| 2026-05-05 15:12 | 33.81208 | -88.44291 | 35977 ft | 347 kts | 306° |
| 2026-05-05 15:13 | 33.84300 | -88.48744 | 35967 ft | 347 kts | 306° |
| 2026-05-05 15:13 | 33.87391 | -88.53201 | 35977 ft | 347 kts | 306° |
| 2026-05-05 15:14 | 33.90485 | -88.57670 | 35976 ft | 347 kts | 306° |
| 2026-05-05 15:14 | 33.93580 | -88.62143 | 35976 ft | 347 kts | 306° |
| 2026-05-05 15:15 | 33.96147 | -88.65859 | 36001 ft | 347 kts | 306° |
| 2026-05-05 15:15 | 33.99226 | -88.70320 | 35984 ft | 345 kts | 306° |
| 2026-05-05 15:16 | 34.02294 | -88.74772 | 35985 ft | 346 kts | 306° |
| 2026-05-05 15:16 | 34.05370 | -88.79241 | 35980 ft | 346 kts | 306° |
| 2026-05-05 15:17 | 34.08439 | -88.83704 | 35984 ft | 346 kts | 306° |
| 2026-05-05 15:17 | 34.11509 | -88.88176 | 35979 ft | 346 kts | 305° |
| 2026-05-05 15:18 | 34.14564 | -88.92629 | 35981 ft | 347 kts | 305° |
| 2026-05-05 15:18 | 34.17631 | -88.97108 | 35980 ft | 346 kts | 305° |
| 2026-05-05 15:19 | 34.20702 | -89.01596 | 35981 ft | 346 kts | 305° |
| 2026-05-05 15:19 | 34.23768 | -89.06084 | 35975 ft | 345 kts | 305° |
| 2026-05-05 15:20 | 34.26817 | -89.10552 | 35953 ft | 345 kts | 305° |
| 2026-05-05 15:20 | 34.29874 | -89.15038 | 35956 ft | 345 kts | 305° |
| 2026-05-05 15:21 | 34.32901 | -89.19485 | 35963 ft | 345 kts | 305° |
| 2026-05-05 15:21 | 34.35946 | -89.23965 | 35944 ft | 345 kts | 305° |
| 2026-05-05 15:22 | 34.39000 | -89.28463 | 35966 ft | 346 kts | 305° |
| 2026-05-05 15:22 | 34.42058 | -89.32972 | 35967 ft | 346 kts | 305° |
| 2026-05-05 15:23 | 34.45115 | -89.37487 | 35973 ft | 346 kts | 305° |
| 2026-05-05 15:23 | 34.48170 | -89.42003 | 35966 ft | 346 kts | 305° |
| 2026-05-05 15:24 | 34.51215 | -89.46511 | 35942 ft | 345 kts | 305° |
| 2026-05-05 15:24 | 34.54234 | -89.50987 | 35933 ft | 345 kts | 305° |
| 2026-05-05 15:25 | 34.57277 | -89.55503 | 35927 ft | 345 kts | 305° |
| 2026-05-05 15:25 | 34.60317 | -89.60020 | 35931 ft | 346 kts | 305° |
| 2026-05-05 15:26 | 34.63358 | -89.64546 | 35926 ft | 345 kts | 305° |
| 2026-05-05 15:26 | 34.66375 | -89.69040 | 35927 ft | 345 kts | 305° |
| 2026-05-05 15:27 | 34.69427 | -89.73594 | 35920 ft | 345 kts | 305° |
| 2026-05-05 15:27 | 34.72460 | -89.78125 | 35922 ft | 345 kts | 305° |
| 2026-05-05 15:28 | 34.75472 | -89.82628 | 35940 ft | 345 kts | 305° |
| 2026-05-05 15:28 | 34.78494 | -89.87155 | 35931 ft | 345 kts | 305° |
| 2026-05-05 15:29 | 34.81516 | -89.91684 | 35923 ft | 345 kts | 305° |
| 2026-05-05 15:29 | 34.84535 | -89.96215 | 35926 ft | 345 kts | 305° |
| 2026-05-05 15:30 | 34.87558 | -90.00759 | 35879 ft | 345 kts | 304° |
| 2026-05-05 15:30 | 34.90587 | -90.05315 | 35905 ft | 347 kts | 304° |
| 2026-05-05 15:31 | 34.93604 | -90.09899 | 35903 ft | 345 kts | 301° |
| 2026-05-05 15:31 | 34.95659 | -90.15101 | 35879 ft | 343 kts | 294° |
| 2026-05-05 15:32 | 34.97588 | -90.20366 | 35900 ft | 343 kts | 293° |
| 2026-05-05 15:32 | 34.99498 | -90.25693 | 35952 ft | 342 kts | 293° |
| 2026-05-05 15:33 | 35.01396 | -90.31030 | 35904 ft | 343 kts | 293° |
| 2026-05-05 15:33 | 35.03295 | -90.36388 | 35897 ft | 344 kts | 293° |
| 2026-05-05 15:34 | 35.05193 | -90.41747 | 35884 ft | 345 kts | 293° |
| 2026-05-05 15:34 | 35.07091 | -90.47119 | 35890 ft | 345 kts | 293° |
| 2026-05-05 15:35 | 35.08994 | -90.52512 | 35891 ft | 345 kts | 293° |
| 2026-05-05 15:35 | 35.10883 | -90.57877 | 35882 ft | 345 kts | 293° |
| 2026-05-05 15:36 | 35.12779 | -90.63269 | 35882 ft | 345 kts | 293° |
| 2026-05-05 15:36 | 35.14663 | -90.68636 | 35879 ft | 345 kts | 293° |
| 2026-05-05 15:37 | 35.16561 | -90.74054 | 35879 ft | 345 kts | 293° |
| 2026-05-05 15:37 | 35.18440 | -90.79426 | 35878 ft | 345 kts | 292° |
| 2026-05-05 15:38 | 35.20318 | -90.84805 | 35877 ft | 344 kts | 292° |
| 2026-05-05 15:38 | 35.22191 | -90.90177 | 35879 ft | 344 kts | 292° |
| 2026-05-05 15:39 | 35.24066 | -90.95564 | 35874 ft | 344 kts | 292° |
| 2026-05-05 15:39 | 35.25934 | -91.00942 | 35877 ft | 347 kts | 292° |
| 2026-05-05 15:40 | 35.27836 | -91.06429 | 35878 ft | 348 kts | 292° |
| 2026-05-05 15:40 | 35.29713 | -91.11852 | 35880 ft | 348 kts | 292° |
| 2026-05-05 15:41 | 35.31602 | -91.17320 | 35862 ft | 348 kts | 292° |
| 2026-05-05 15:41 | 35.33489 | -91.22789 | 35870 ft | 348 kts | 291° |
| 2026-05-05 15:42 | 35.35366 | -91.28241 | 35869 ft | 348 kts | 291° |
| 2026-05-05 15:42 | 35.37246 | -91.33710 | 35870 ft | 348 kts | 291° |
| 2026-05-05 15:43 | 35.39120 | -91.39173 | 35863 ft | 348 kts | 291° |
| 2026-05-05 15:43 | 35.40994 | -91.44644 | 35862 ft | 348 kts | 291° |
| 2026-05-05 15:44 | 35.42853 | -91.50081 | 35858 ft | 348 kts | 291° |
| 2026-05-05 15:44 | 35.44719 | -91.55549 | 35841 ft | 348 kts | 291° |
| 2026-05-05 15:45 | 35.46580 | -91.61011 | 35849 ft | 347 kts | 291° |
| 2026-05-05 15:45 | 35.48441 | -91.66483 | 35845 ft | 347 kts | 291° |
| 2026-05-05 15:46 | 35.50299 | -91.71959 | 35842 ft | 348 kts | 291° |
| 2026-05-05 15:46 | 35.52162 | -91.77454 | 35844 ft | 349 kts | 291° |
| 2026-05-05 15:47 | 35.54024 | -91.82955 | 35837 ft | 349 kts | 291° |
| 2026-05-05 15:47 | 35.55879 | -91.88445 | 35824 ft | 349 kts | 291° |
| 2026-05-05 15:48 | 35.57676 | -91.93978 | 35829 ft | 347 kts | 290° |
| 2026-05-05 15:48 | 35.59454 | -91.99477 | 35823 ft | 346 kts | 290° |
| 2026-05-05 15:49 | 35.61228 | -92.04972 | 35827 ft | 346 kts | 290° |
| 2026-05-05 15:49 | 35.62989 | -92.10434 | 35822 ft | 346 kts | 290° |
| 2026-05-05 15:50 | 35.64758 | -92.15928 | 35825 ft | 346 kts | 290° |
| 2026-05-05 15:50 | 35.66529 | -92.21443 | 35830 ft | 346 kts | 290° |
| 2026-05-05 15:51 | 35.68296 | -92.26953 | 35828 ft | 346 kts | 290° |
| 2026-05-05 15:51 | 35.70060 | -92.32464 | 35835 ft | 345 kts | 289° |
| 2026-05-05 15:52 | 35.71811 | -92.37945 | 35825 ft | 344 kts | 289° |
| 2026-05-05 15:52 | 35.73548 | -92.43395 | 35851 ft | 345 kts | 289° |
| 2026-05-05 15:53 | 35.75299 | -92.48895 | 35826 ft | 345 kts | 289° |
| 2026-05-05 15:53 | 35.77052 | -92.54411 | 35827 ft | 346 kts | 289° |
| 2026-05-05 15:54 | 35.78801 | -92.59927 | 35818 ft | 345 kts | 289° |
| 2026-05-05 15:54 | 35.80546 | -92.65440 | 35817 ft | 345 kts | 289° |
| 2026-05-05 15:55 | 35.82285 | -92.70949 | 35813 ft | 345 kts | 288° |
| 2026-05-05 15:55 | 35.84019 | -92.76448 | 35800 ft | 344 kts | 288° |
| 2026-05-05 15:56 | 35.85751 | -92.81950 | 35801 ft | 344 kts | 288° |
| 2026-05-05 15:56 | 35.87469 | -92.87419 | 35807 ft | 344 kts | 288° |
| 2026-05-05 15:57 | 35.89195 | -92.92925 | 35810 ft | 344 kts | 288° |
| 2026-05-05 15:57 | 35.90919 | -92.98433 | 35781 ft | 344 kts | 288° |
| 2026-05-05 15:58 | 35.92638 | -93.03936 | 35804 ft | 344 kts | 288° |
| 2026-05-05 15:58 | 35.94354 | -93.09443 | 35794 ft | 343 kts | 288° |
| 2026-05-05 15:59 | 35.96064 | -93.14940 | 35790 ft | 343 kts | 288° |
| 2026-05-05 15:59 | 35.97771 | -93.20436 | 35783 ft | 342 kts | 288° |
| 2026-05-05 16:00 | 35.99476 | -93.25937 | 35784 ft | 343 kts | 288° |
| 2026-05-05 16:00 | 36.01165 | -93.31393 | 35795 ft | 343 kts | 288° |
| 2026-05-05 16:01 | 36.02864 | -93.36897 | 35789 ft | 342 kts | 288° |
| 2026-05-05 16:01 | 36.04560 | -93.42400 | 35777 ft | 343 kts | 288° |
| 2026-05-05 16:02 | 36.06256 | -93.47913 | 35785 ft | 343 kts | 288° |
| 2026-05-05 16:02 | 36.07948 | -93.53425 | 35768 ft | 342 kts | 288° |
| 2026-05-05 16:03 | 36.09625 | -93.58897 | 35767 ft | 343 kts | 288° |
| 2026-05-05 16:03 | 36.11310 | -93.64406 | 35769 ft | 343 kts | 288° |
| 2026-05-05 16:04 | 36.12714 | -93.69004 | 35767 ft | 343 kts | 288° |
| 2026-05-05 16:04 | 36.14397 | -93.74527 | 35766 ft | 343 kts | 288° |
| 2026-05-05 16:05 | 36.16066 | -93.80013 | 35779 ft | 343 kts | 288° |
| 2026-05-05 16:05 | 36.17743 | -93.85540 | 35776 ft | 342 kts | 287° |
| 2026-05-05 16:06 | 36.19414 | -93.91051 | 35788 ft | 342 kts | 287° |
| 2026-05-05 16:06 | 36.21086 | -93.96576 | 35784 ft | 343 kts | 287° |
| 2026-05-05 16:07 | 36.22760 | -94.02116 | 35787 ft | 343 kts | 287° |
| 2026-05-05 16:07 | 36.24428 | -94.07648 | 35786 ft | 343 kts | 287° |
| 2026-05-05 16:08 | 36.26107 | -94.13194 | 35784 ft | 343 kts | 287° |
| 2026-05-05 16:08 | 36.27774 | -94.18681 | 35802 ft | 343 kts | 287° |
| 2026-05-05 16:09 | 36.29454 | -94.24221 | 35807 ft | 343 kts | 287° |
| 2026-05-05 16:09 | 36.31133 | -94.29764 | 35786 ft | 343 kts | 287° |
| 2026-05-05 16:10 | 36.32808 | -94.35307 | 35787 ft | 343 kts | 287° |
| 2026-05-05 16:10 | 36.34483 | -94.40861 | 35787 ft | 343 kts | 287° |
| 2026-05-05 16:11 | 36.36151 | -94.46399 | 35778 ft | 343 kts | 287° |
| 2026-05-05 16:12 | 36.39474 | -94.57473 | 35759 ft | 343 kts | 287° |
| 2026-05-05 16:13 | 36.43639 | -94.71409 | 35765 ft | 346 kts | 286° |
| 2026-05-05 16:13 | 36.45310 | -94.77020 | 35755 ft | 346 kts | 286° |
| 2026-05-05 16:14 | 36.48631 | -94.88209 | 35758 ft | 346 kts | 286° |
| 2026-05-05 16:15 | 36.51950 | -94.99431 | 35753 ft | 346 kts | 286° |
| 2026-05-05 16:16 | 36.55250 | -95.10636 | 35768 ft | 345 kts | 286° |
| 2026-05-05 16:17 | 36.57722 | -95.19061 | 35769 ft | 345 kts | 286° |
| 2026-05-05 16:18 | 36.60189 | -95.27494 | 35772 ft | 345 kts | 286° |
| 2026-05-05 16:19 | 36.62646 | -95.35919 | 35780 ft | 345 kts | 285° |
| 2026-05-05 16:19 | 36.65108 | -95.44382 | 35787 ft | 350 kts | 285° |
| 2026-05-05 16:20 | 36.68410 | -95.55777 | 35785 ft | 349 kts | 285° |
| 2026-05-05 16:22 | 36.72516 | -95.70015 | 35816 ft | 349 kts | 285° |